createdAt,value
2019-05-25T00:00:56.859Z,80.83
2019-05-25T00:02:49.644Z,81.02
2019-05-25T00:03:49.586Z,81.70
2019-05-25T00:05:42.368Z,81.56
2019-05-25T00:06:42.297Z,81.66
2019-05-25T00:08:35.074Z,82.14
2019-05-25T00:09:35.017Z,82.90
2019-05-25T00:11:27.780Z,82.81
2019-05-25T00:12:27.730Z,82.81
2019-05-25T00:14:20.491Z,82.32
2019-05-25T00:15:20.413Z,81.95
2019-05-25T00:17:13.215Z,83.00
2019-05-25T00:18:13.147Z,83.76
2019-05-25T00:20:05.933Z,83.25
2019-05-25T00:21:05.840Z,82.76
2019-05-25T00:22:58.631Z,83.44
2019-05-25T00:24:11.221Z,83.15
2019-05-25T00:25:51.359Z,83.15
2019-05-25T00:26:51.261Z,82.86
2019-05-25T00:28:44.030Z,84.58
2019-05-25T00:29:43.966Z,84.20
2019-05-25T00:31:36.760Z,83.72
2019-05-25T00:32:36.682Z,83.92
2019-05-25T00:34:29.463Z,83.68
2019-05-25T00:35:29.384Z,83.72
2019-05-25T00:37:22.159Z,83.25
2019-05-25T00:38:22.092Z,83.59
2019-05-25T00:40:14.876Z,85.60
2019-05-25T00:41:14.797Z,85.88
2019-05-25T00:43:07.576Z,86.27
2019-05-25T00:44:07.499Z,85.50
2019-05-25T00:46:00.321Z,86.94
2019-05-25T00:47:00.226Z,86.74
2019-05-25T00:48:52.975Z,87.61
2019-05-25T00:49:52.912Z,87.99
2019-05-25T00:51:45.692Z,86.46
2019-05-25T00:52:45.620Z,87.90
2019-05-25T00:54:38.383Z,87.90
2019-05-25T00:55:38.321Z,87.61
2019-05-25T00:57:31.107Z,88.37
2019-05-25T00:58:31.036Z,88.52
2019-05-25T01:00:23.849Z,88.81
2019-05-25T01:01:24.551Z,87.95
2019-05-25T01:03:16.538Z,89.09
2019-05-25T01:04:16.468Z,89.67
2019-05-25T01:06:09.257Z,90.34
2019-05-25T01:07:09.185Z,90.05
2019-05-25T01:09:01.951Z,90.91
2019-05-25T01:10:02.297Z,89.86
2019-05-25T01:11:54.656Z,91.01
2019-05-25T01:12:54.582Z,92.35
2019-05-25T01:14:47.374Z,92.78
2019-05-25T01:15:47.295Z,92.59
2019-05-25T01:17:40.079Z,93.55
2019-05-25T01:18:40.017Z,93.40
2019-05-25T01:20:32.832Z,93.74
2019-05-25T01:21:32.720Z,93.35
2019-05-25T01:23:25.507Z,94.41
2019-05-25T01:24:25.450Z,94.50
2019-05-25T01:26:18.205Z,94.70
2019-05-25T01:27:18.129Z,94.50
2019-05-25T01:29:10.901Z,95.07
2019-05-25T01:30:10.829Z,94.60
2019-05-25T01:32:03.611Z,95.84
2019-05-25T01:33:03.532Z,95.84
2019-05-25T01:34:56.297Z,96.51
2019-05-25T01:35:56.246Z,96.42
2019-05-25T01:37:49.049Z,95.75
2019-05-25T01:38:48.979Z,96.42
2019-05-25T01:40:41.731Z,97.18
2019-05-25T01:41:41.653Z,97.47
2019-05-25T01:43:34.418Z,97.13
2019-05-25T01:44:34.353Z,97.04
2019-05-25T01:46:27.133Z,97.23
2019-05-25T01:47:27.051Z,97.04
2019-05-25T01:49:19.823Z,98.09
2019-05-25T01:50:19.759Z,98.28
2019-05-25T01:52:12.553Z,98.66
2019-05-25T01:53:12.453Z,98.38
2019-05-25T01:55:32.696Z,98.38
2019-05-25T01:56:32.667Z,98.09
2019-05-25T01:58:25.426Z,98.28
2019-05-25T01:59:25.323Z,97.90
2019-05-25T02:01:18.114Z,98.28
2019-05-25T02:02:18.041Z,98.47
2019-05-25T02:04:10.817Z,98.38
2019-05-25T02:05:10.751Z,98.38
2019-05-25T02:07:03.531Z,98.52
2019-05-25T02:08:03.439Z,98.38
2019-05-25T02:09:56.211Z,98.18
2019-05-25T02:10:56.147Z,98.28
2019-05-25T02:12:48.942Z,98.23
2019-05-25T02:13:48.851Z,98.23
2019-05-25T02:15:41.627Z,98.23
2019-05-25T02:16:41.560Z,98.23
2019-05-25T02:18:34.347Z,98.23
2019-05-25T02:19:34.262Z,97.94
2019-05-25T02:21:27.047Z,98.42
2019-05-25T02:22:26.970Z,98.23
2019-05-25T02:24:19.724Z,98.42
2019-05-25T02:25:19.667Z,98.42
2019-05-25T02:27:12.440Z,98.33
2019-05-25T02:28:12.366Z,98.71
2019-05-25T02:30:05.134Z,98.13
2019-05-25T02:31:05.068Z,98.52
2019-05-25T02:32:57.849Z,98.33
2019-05-25T02:33:57.764Z,98.13
2019-05-25T02:35:50.536Z,98.47
2019-05-25T02:36:50.466Z,98.57
2019-05-25T02:38:43.245Z,98.13
2019-05-25T02:39:43.162Z,98.18
2019-05-25T02:41:35.962Z,98.28
2019-05-25T02:42:35.886Z,98.57
2019-05-25T02:44:28.650Z,98.47
2019-05-25T02:45:28.576Z,99.14
2019-05-25T02:47:21.368Z,98.08
2019-05-25T02:48:21.299Z,98.18
2019-05-25T02:50:14.050Z,98.37
2019-05-25T02:51:13.985Z,98.28
2019-05-25T02:53:06.821Z,97.89
2019-05-25T02:54:06.688Z,97.71
2019-05-25T02:55:59.478Z,97.99
2019-05-25T02:56:59.412Z,97.99
2019-05-25T02:58:52.178Z,98.57
2019-05-25T02:59:52.125Z,97.71
2019-05-25T03:01:44.903Z,97.99
2019-05-25T03:02:44.900Z,98.28
2019-05-25T03:04:37.606Z,97.42
2019-05-25T03:05:37.546Z,97.99
2019-05-25T03:07:30.330Z,98.18
2019-05-25T03:08:30.264Z,97.89
2019-05-25T03:10:23.010Z,97.94
2019-05-25T03:11:22.936Z,98.80
2019-05-25T03:13:15.717Z,97.75
2019-05-25T03:14:15.637Z,98.18
2019-05-25T03:16:08.405Z,97.71
2019-05-25T03:17:08.340Z,98.47
2019-05-25T03:19:01.181Z,98.80
2019-05-25T03:20:01.106Z,97.37
2019-05-25T03:21:53.898Z,98.42
2019-05-25T03:22:53.825Z,98.71
2019-05-25T03:24:46.584Z,97.85
2019-05-25T03:25:49.732Z,97.66
2019-05-25T03:27:39.293Z,98.23
2019-05-25T03:28:39.206Z,98.61
2019-05-25T03:30:31.985Z,98.42
2019-05-25T03:31:31.924Z,98.80
2019-05-25T03:33:24.706Z,98.23
2019-05-25T03:34:24.613Z,98.42
2019-05-25T03:36:17.394Z,97.75
2019-05-25T03:37:17.369Z,98.52
2019-05-25T03:39:10.092Z,97.56
2019-05-25T03:40:10.017Z,98.03
2019-05-25T03:42:02.799Z,98.32
2019-05-25T03:43:02.727Z,98.61
2019-05-25T03:44:55.484Z,98.61
2019-05-25T03:45:55.414Z,97.66
2019-05-25T03:47:48.216Z,98.13
2019-05-25T03:48:48.138Z,98.71
2019-05-25T03:50:40.911Z,98.32
2019-05-25T03:51:40.871Z,98.32
2019-05-25T03:53:33.626Z,98.32
2019-05-25T03:54:33.533Z,98.32
2019-05-25T03:56:26.313Z,99.08
2019-05-25T03:57:26.263Z,98.03
2019-05-25T03:59:19.019Z,98.71
2019-05-25T04:00:18.939Z,98.52
2019-05-25T04:02:11.920Z,98.32
2019-05-25T04:03:11.812Z,97.94
2019-05-25T04:05:04.587Z,98.13
2019-05-25T04:06:04.526Z,98.13
2019-05-25T04:07:57.303Z,98.42
2019-05-25T04:08:57.225Z,98.32
2019-05-25T04:10:49.994Z,98.99
2019-05-25T04:11:49.927Z,98.90
2019-05-25T04:13:42.710Z,98.90
2019-05-25T04:14:42.631Z,98.61
2019-05-25T04:16:35.416Z,98.52
2019-05-25T04:17:35.329Z,98.71
2019-05-25T04:19:28.142Z,98.85
2019-05-25T04:20:28.101Z,98.61
2019-05-25T04:22:20.835Z,98.08
2019-05-25T04:23:20.784Z,98.94
2019-05-25T04:25:13.553Z,98.94
2019-05-25T04:26:21.844Z,98.71
2019-05-25T04:28:06.259Z,98.37
2019-05-25T04:29:06.171Z,99.04
2019-05-25T04:30:58.986Z,99.33
2019-05-25T04:31:58.870Z,98.47
2019-05-25T04:33:51.659Z,98.75
2019-05-25T04:34:51.573Z,99.14
2019-05-25T04:36:44.345Z,99.04
2019-05-25T04:37:44.283Z,98.99
2019-05-25T04:39:37.060Z,99.38
2019-05-25T04:40:37.024Z,99.95
2019-05-25T04:42:29.785Z,99.66
2019-05-25T04:43:29.720Z,98.61
2019-05-25T04:45:22.536Z,99.09
2019-05-25T04:46:22.454Z,99.28
2019-05-25T04:48:15.295Z,98.85
2019-05-25T04:49:15.153Z,98.66
2019-05-25T04:51:07.942Z,98.47
2019-05-25T04:52:07.864Z,98.85
2019-05-25T04:54:00.644Z,99.71
2019-05-25T04:55:00.561Z,99.24
2019-05-25T04:56:53.333Z,99.10
2019-05-25T04:57:53.272Z,99.99
2019-05-25T04:59:46.046Z,99.05
2019-05-25T05:00:45.987Z,97.66
2019-05-25T05:02:38.735Z,95.41
2019-05-25T05:03:38.678Z,95.41
2019-05-25T05:05:31.511Z,92.33
2019-05-25T05:06:31.395Z,89.11
2019-05-25T05:08:24.191Z,85.06
2019-05-25T05:09:24.093Z,83.18
2019-05-25T05:11:16.881Z,79.71
2019-05-25T05:12:16.817Z,79.81
2019-05-25T05:14:09.599Z,77.67
2019-05-25T05:15:09.542Z,77.96
2019-05-25T05:17:02.298Z,77.25
2019-05-25T05:18:02.231Z,76.90
2019-05-25T05:19:55.024Z,78.65
2019-05-25T05:20:54.953Z,79.52
2019-05-25T05:22:47.729Z,76.90
2019-05-25T05:23:47.650Z,76.71
2019-05-25T05:25:40.442Z,76.07
2019-05-25T05:26:54.549Z,74.82
2019-05-25T05:28:33.147Z,73.95
2019-05-25T05:29:33.078Z,74.72
2019-05-25T05:31:25.859Z,75.01
2019-05-25T05:32:27.792Z,75.30
2019-05-25T05:34:18.594Z,74.60
2019-05-25T05:35:18.556Z,73.50
2019-05-25T05:37:11.303Z,71.94
2019-05-25T05:38:11.267Z,70.20
2019-05-25T05:40:04.045Z,70.23
2019-05-25T05:41:03.977Z,69.74
2019-05-25T05:42:56.760Z,70.04
2019-05-25T05:43:56.703Z,69.10
2019-05-25T05:45:49.494Z,68.01
2019-05-25T05:46:49.437Z,66.78
2019-05-25T05:48:42.244Z,65.14
2019-05-25T05:49:42.173Z,65.34
2019-05-25T05:51:34.952Z,67.85
2019-05-25T05:52:34.881Z,67.79
2019-05-25T05:54:27.687Z,68.56
2019-05-25T05:55:27.616Z,67.14
2019-05-25T05:57:20.393Z,66.94
2019-05-25T05:58:20.333Z,67.43
2019-05-25T06:00:13.148Z,67.36
2019-05-25T06:01:13.055Z,66.11
2019-05-25T06:03:05.848Z,67.65
2019-05-25T06:04:05.790Z,67.69
2019-05-25T06:05:58.601Z,68.36
2019-05-25T06:06:58.537Z,67.97
2019-05-25T06:08:51.339Z,66.30
2019-05-25T06:09:51.257Z,65.66
2019-05-25T06:11:44.059Z,64.53
2019-05-25T06:12:43.973Z,63.82
2019-05-25T06:14:36.771Z,62.92
2019-05-25T06:15:36.728Z,63.01
2019-05-25T06:17:29.504Z,64.21
2019-05-25T06:18:29.450Z,64.43
2019-05-25T06:20:22.275Z,68.45
2019-05-25T06:21:22.191Z,71.04
2019-05-25T06:23:14.990Z,71.89
2019-05-25T06:24:14.928Z,71.96
2019-05-25T06:26:07.719Z,68.40
2019-05-25T06:27:07.643Z,67.85
2019-05-25T06:29:00.511Z,66.01
2019-05-25T06:30:00.443Z,65.82
2019-05-25T06:31:53.257Z,68.17
2019-05-25T06:32:53.201Z,67.59
2019-05-25T06:34:45.971Z,69.80
2019-05-25T06:35:45.896Z,71.95
2019-05-25T06:37:38.717Z,73.16
2019-05-25T06:38:38.641Z,71.66
2019-05-25T06:40:31.421Z,73.46
2019-05-25T06:41:31.349Z,74.84
2019-05-25T06:43:24.141Z,74.90
2019-05-25T06:44:24.084Z,75.82
2019-05-25T06:46:16.879Z,78.73
2019-05-25T06:47:16.800Z,80.07
2019-05-25T06:49:09.592Z,81.92
2019-05-25T06:50:09.522Z,83.45
2019-05-25T06:52:02.317Z,86.58
2019-05-25T06:53:02.249Z,88.40
2019-05-25T06:54:55.046Z,88.31
2019-05-25T06:55:54.986Z,87.54
2019-05-25T06:57:47.765Z,87.92
2019-05-25T06:58:47.695Z,88.49
2019-05-25T07:00:40.497Z,88.31
2019-05-25T07:01:40.421Z,88.55
2019-05-25T07:03:33.214Z,90.75
2019-05-25T07:04:33.146Z,91.19
2019-05-25T07:06:25.985Z,92.48
2019-05-25T07:07:25.881Z,92.05
2019-05-25T07:09:18.669Z,92.91
2019-05-25T07:10:18.596Z,93.59
2019-05-25T07:12:11.387Z,93.88
2019-05-25T07:13:11.308Z,93.97
2019-05-25T07:15:04.101Z,93.40
2019-05-25T07:16:04.025Z,94.07
2019-05-25T07:17:56.788Z,94.17
2019-05-25T07:18:56.733Z,95.03
2019-05-25T07:20:49.523Z,95.41
2019-05-25T07:21:49.446Z,95.03
2019-05-25T07:23:42.237Z,95.03
2019-05-25T07:24:42.174Z,94.26
2019-05-25T07:26:35.010Z,95.70
2019-05-25T07:27:34.896Z,95.41
2019-05-25T07:29:27.667Z,96.18
2019-05-25T07:30:27.620Z,96.08
2019-05-25T07:32:20.409Z,96.37
2019-05-25T07:33:20.317Z,96.08
2019-05-25T07:35:13.094Z,97.28
2019-05-25T07:36:13.022Z,96.99
2019-05-25T07:38:05.792Z,97.28
2019-05-25T07:39:05.732Z,96.70
2019-05-25T07:40:58.541Z,96.89
2019-05-25T07:41:58.444Z,96.32
2019-05-25T07:43:51.237Z,96.61
2019-05-25T07:44:51.180Z,97.18
2019-05-25T07:46:43.960Z,97.18
2019-05-25T07:47:43.884Z,97.85
2019-05-25T07:49:36.666Z,97.81
2019-05-25T07:50:36.599Z,98.00
2019-05-25T07:52:29.393Z,97.04
2019-05-25T07:53:29.320Z,97.52
2019-05-25T07:55:22.115Z,97.38
2019-05-25T07:56:22.041Z,97.71
2019-05-25T07:58:18.087Z,97.81
2019-05-25T07:59:14.759Z,97.52
2019-05-25T08:01:07.559Z,97.61
2019-05-25T08:02:07.466Z,98.48
2019-05-25T08:04:00.265Z,97.66
2019-05-25T08:05:00.195Z,98.24
2019-05-25T08:06:52.987Z,98.14
2019-05-25T08:07:52.907Z,98.05
2019-05-25T08:09:45.681Z,98.38
2019-05-25T08:10:45.612Z,98.38
2019-05-25T08:12:38.408Z,98.48
2019-05-25T08:13:38.338Z,98.48
2019-05-25T08:15:31.118Z,97.81
2019-05-25T08:16:31.044Z,98.67
2019-05-25T08:18:23.815Z,98.91
2019-05-25T08:19:23.764Z,98.91
2019-05-25T08:21:16.546Z,98.91
2019-05-25T08:22:16.475Z,98.72
2019-05-25T08:24:09.249Z,99.10
2019-05-25T08:25:09.577Z,99.19
2019-05-25T08:27:02.188Z,99.10
2019-05-25T08:28:02.119Z,99.19
2019-05-25T08:29:54.911Z,98.91
2019-05-25T08:30:54.836Z,99.10
2019-05-25T08:32:47.614Z,99.72
2019-05-25T08:33:47.543Z,98.96
2019-05-25T08:35:40.324Z,99.82
2019-05-25T08:36:40.265Z,99.99
2019-05-25T08:38:33.043Z,98.91
2019-05-25T08:39:32.971Z,99.87
2019-05-25T08:41:25.757Z,99.29
2019-05-25T08:42:25.702Z,99.77
2019-05-25T08:44:18.466Z,99.53
2019-05-25T08:45:18.406Z,99.43
2019-05-25T08:47:12.948Z,99.43
2019-05-25T08:48:12.846Z,99.63
2019-05-25T08:50:05.623Z,99.99
2019-05-25T08:51:05.553Z,99.99
2019-05-25T08:52:58.370Z,99.77
2019-05-25T08:53:58.426Z,99.10
2019-05-25T08:55:51.037Z,99.99
2019-05-25T08:56:51.363Z,99.99
2019-05-25T08:58:48.412Z,99.99
2019-05-25T08:59:43.683Z,99.77
2019-05-25T09:01:36.521Z,99.82
2019-05-25T09:02:36.400Z,99.99
2019-05-25T09:04:29.169Z,99.99
2019-05-25T09:05:29.107Z,99.99
2019-05-25T09:07:21.891Z,99.58
2019-05-25T09:08:21.820Z,99.87
2019-05-25T09:10:14.598Z,99.99
2019-05-25T09:11:14.546Z,99.99
2019-05-25T09:13:07.503Z,99.82
2019-05-25T09:14:07.253Z,99.58
2019-05-25T09:16:00.026Z,98.24
2019-05-25T09:16:59.970Z,97.66
2019-05-25T09:18:52.754Z,97.33
2019-05-25T09:19:52.678Z,97.66
2019-05-25T09:22:01.449Z,97.47
2019-05-25T09:22:45.396Z,98.05
2019-05-25T09:24:38.182Z,97.47
2019-05-25T09:25:38.119Z,97.86
2019-05-25T09:27:30.925Z,97.24
2019-05-25T09:28:30.846Z,97.33
2019-05-25T09:30:23.630Z,97.33
2019-05-25T09:31:23.546Z,96.08
2019-05-25T09:33:16.338Z,96.51
2019-05-25T09:34:16.268Z,94.88
2019-05-25T09:36:09.045Z,93.82
2019-05-25T09:37:08.979Z,92.77
2019-05-25T09:39:01.786Z,93.25
2019-05-25T09:40:01.709Z,93.54
2019-05-25T09:41:54.504Z,94.26
2019-05-25T09:42:54.435Z,94.79
2019-05-25T09:44:47.245Z,95.75
2019-05-25T09:45:47.176Z,96.99
2019-05-25T09:47:39.968Z,97.38
2019-05-25T09:48:39.892Z,96.03
2019-05-25T09:50:32.710Z,94.88
2019-05-25T09:51:32.614Z,94.40
2019-05-25T09:53:25.445Z,94.35
2019-05-25T09:54:25.359Z,93.63
2019-05-25T09:56:18.192Z,93.77
2019-05-25T09:57:18.121Z,92.96
2019-05-25T09:59:19.770Z,89.54
2019-05-25T10:00:10.867Z,88.20
2019-05-25T10:02:03.651Z,87.09
2019-05-25T10:03:03.567Z,84.16
2019-05-25T10:04:56.351Z,85.50
2019-05-25T10:05:56.294Z,85.11
2019-05-25T10:07:49.085Z,82.04
2019-05-25T10:08:49.001Z,82.81
2019-05-25T10:10:41.771Z,82.08
2019-05-25T10:11:41.718Z,80.73
2019-05-25T10:13:34.481Z,81.27
2019-05-25T10:14:34.413Z,82.14
2019-05-25T10:16:27.200Z,81.84
2019-05-25T10:17:27.129Z,82.42
2019-05-25T10:19:19.929Z,83.53
2019-05-25T10:20:19.852Z,82.86
2019-05-25T10:22:12.641Z,84.17
2019-05-25T10:23:12.592Z,85.22
2019-05-25T10:25:05.324Z,85.41
2019-05-25T10:26:05.262Z,84.21
2019-05-25T10:27:58.055Z,83.73
2019-05-25T10:28:57.978Z,83.53
2019-05-25T10:30:50.773Z,81.50
2019-05-25T10:31:50.708Z,79.08
2019-05-25T10:33:43.504Z,75.99
2019-05-25T10:34:43.421Z,76.42
2019-05-25T10:36:36.200Z,77.44
2019-05-25T10:37:36.143Z,77.98
2019-05-25T10:39:28.938Z,77.69
2019-05-25T10:40:28.857Z,77.50
2019-05-25T10:42:21.650Z,78.27
2019-05-25T10:43:21.578Z,79.48
2019-05-25T10:45:14.365Z,79.77
2019-05-25T10:46:14.291Z,80.69
2019-05-25T10:48:07.088Z,81.23
2019-05-25T10:49:07.014Z,82.09
2019-05-25T10:50:59.839Z,81.81
2019-05-25T10:51:59.756Z,81.32
2019-05-25T10:53:52.538Z,82.57
2019-05-25T10:54:52.471Z,83.34
2019-05-25T10:56:45.248Z,83.06
2019-05-25T10:57:45.176Z,83.73
2019-05-25T10:59:51.876Z,82.73
2019-05-25T11:00:37.902Z,83.40
2019-05-25T11:02:30.685Z,83.34
2019-05-25T11:03:30.625Z,83.40
2019-05-25T11:05:23.431Z,83.11
2019-05-25T11:06:23.343Z,82.15
2019-05-25T11:08:16.141Z,84.17
2019-05-25T11:09:16.052Z,84.94
2019-05-25T11:11:08.835Z,84.94
2019-05-25T11:12:08.763Z,84.94
2019-05-25T11:14:01.550Z,85.13
2019-05-25T11:15:01.464Z,85.22
2019-05-25T11:16:54.253Z,84.45
2019-05-25T11:17:54.214Z,84.84
2019-05-25T11:19:46.990Z,84.94
2019-05-25T11:20:46.918Z,84.40
2019-05-25T11:22:39.727Z,85.17
2019-05-25T11:23:39.638Z,83.97
2019-05-25T11:25:32.431Z,84.40
2019-05-25T11:26:32.346Z,83.53
2019-05-25T11:28:25.144Z,80.30
2019-05-25T11:29:25.086Z,79.96
2019-05-25T11:31:17.844Z,79.28
2019-05-25T11:32:17.780Z,79.52
2019-05-25T11:34:10.563Z,80.00
2019-05-25T11:35:10.490Z,78.85
2019-05-25T11:37:03.271Z,78.71
2019-05-25T11:38:03.189Z,79.77
2019-05-25T11:39:55.973Z,80.44
2019-05-25T11:40:55.903Z,81.02
2019-05-25T11:42:48.687Z,79.96
2019-05-25T11:43:48.614Z,80.73
2019-05-25T11:45:43.373Z,80.44
2019-05-25T11:46:41.340Z,80.69
2019-05-25T11:48:34.109Z,82.32
2019-05-25T11:49:34.036Z,81.37
2019-05-25T11:51:26.827Z,81.84
2019-05-25T11:52:26.745Z,81.17
2019-05-25T11:54:19.524Z,80.79
2019-05-25T11:55:19.478Z,81.17
2019-05-25T11:57:12.283Z,82.19
2019-05-25T11:58:12.224Z,83.25
2019-05-25T12:00:04.999Z,84.01
2019-05-25T12:01:04.924Z,83.53
2019-05-25T12:02:57.692Z,83.06
2019-05-25T12:03:57.634Z,83.53
2019-05-25T12:05:50.406Z,84.50
2019-05-25T12:06:50.333Z,85.36
2019-05-25T12:08:43.121Z,86.66
2019-05-25T12:09:43.042Z,86.38
2019-05-25T12:11:35.815Z,85.89
2019-05-25T12:12:35.750Z,86.57
2019-05-25T12:14:28.540Z,86.66
2019-05-25T12:15:28.464Z,85.32
2019-05-25T12:17:21.268Z,86.22
2019-05-25T12:18:21.187Z,85.46
2019-05-25T12:20:13.968Z,85.36
2019-05-25T12:21:13.894Z,85.46
2019-05-25T12:23:06.828Z,86.75
2019-05-25T12:24:06.690Z,84.16
2019-05-25T12:25:59.455Z,85.69
2019-05-25T12:26:59.446Z,85.46
2019-05-25T12:28:52.179Z,85.07
2019-05-25T12:29:52.199Z,85.46
2019-05-25T12:31:44.912Z,88.15
2019-05-25T12:32:44.819Z,91.61
2019-05-25T12:34:37.630Z,90.22
2019-05-25T12:35:37.540Z,90.60
2019-05-25T12:37:30.324Z,89.45
2019-05-25T12:38:30.260Z,88.59
2019-05-25T12:40:23.111Z,88.06
2019-05-25T12:41:23.025Z,89.01
2019-05-25T12:43:15.849Z,87.76
2019-05-25T12:44:15.760Z,87.76
2019-05-25T12:46:08.611Z,86.75
2019-05-25T12:47:08.543Z,86.85
2019-05-25T12:49:01.360Z,85.50
2019-05-25T12:50:01.267Z,87.81
2019-05-25T12:51:54.145Z,86.27
2019-05-25T12:52:53.973Z,84.92
2019-05-25T12:54:46.843Z,84.83
2019-05-25T12:55:46.685Z,84.73
2019-05-25T12:57:39.493Z,85.50
2019-05-25T12:58:39.415Z,85.31
2019-05-25T13:00:32.206Z,85.84
2019-05-25T13:01:32.198Z,86.22
2019-05-25T13:03:28.326Z,86.94
2019-05-25T13:04:25.373Z,85.40
2019-05-25T13:06:18.539Z,85.27
2019-05-25T13:07:18.179Z,83.63
2019-05-25T13:09:10.968Z,83.58
2019-05-25T13:10:10.892Z,83.39
2019-05-25T13:12:03.699Z,83.23
2019-05-25T13:13:03.633Z,83.42
2019-05-25T13:14:56.453Z,82.08
2019-05-25T13:15:56.361Z,82.56
2019-05-25T13:17:49.275Z,81.21
2019-05-25T13:18:49.224Z,80.63
2019-05-25T13:20:41.997Z,80.54
2019-05-25T13:21:41.924Z,81.21
2019-05-25T13:23:34.707Z,80.73
2019-05-25T13:24:34.647Z,81.21
2019-05-25T13:26:27.451Z,81.02
2019-05-25T13:27:27.414Z,80.44
2019-05-25T13:29:20.148Z,82.08
2019-05-25T13:30:20.085Z,82.32
2019-05-25T13:32:12.909Z,82.42
2019-05-25T13:33:12.827Z,81.27
2019-05-25T13:35:05.624Z,83.00
2019-05-25T13:36:05.553Z,81.94
2019-05-25T13:37:58.329Z,83.09
2019-05-25T13:38:58.317Z,81.84
2019-05-25T13:40:51.122Z,82.04
2019-05-25T13:41:50.994Z,82.23
2019-05-25T13:43:43.830Z,81.61
2019-05-25T13:44:43.725Z,81.04
2019-05-25T13:46:36.519Z,81.75
2019-05-25T13:47:36.442Z,82.32
2019-05-25T13:49:29.232Z,82.32
2019-05-25T13:50:29.167Z,81.84
2019-05-25T13:52:21.984Z,82.90
2019-05-25T13:53:22.527Z,81.17
2019-05-25T13:55:14.718Z,81.75
2019-05-25T13:56:14.624Z,81.46
2019-05-25T13:58:07.432Z,82.14
2019-05-25T13:59:07.365Z,82.08
2019-05-25T14:01:00.138Z,80.25
2019-05-25T14:02:00.101Z,79.73
2019-05-25T14:03:55.739Z,82.32
2019-05-25T14:04:52.846Z,82.42
2019-05-25T14:06:46.456Z,82.81
2019-05-25T14:07:46.413Z,83.09
2019-05-25T14:09:39.210Z,81.56
2019-05-25T14:10:39.118Z,81.27
2019-05-25T14:12:31.910Z,82.76
2019-05-25T14:13:31.822Z,82.96
2019-05-25T14:15:24.631Z,81.99
2019-05-25T14:16:24.552Z,81.52
2019-05-25T14:18:17.326Z,83.78
2019-05-25T14:19:17.256Z,82.73
2019-05-25T14:21:10.050Z,82.53
2019-05-25T14:22:09.995Z,83.59
2019-05-25T14:24:02.768Z,84.17
2019-05-25T14:25:02.695Z,83.59
2019-05-25T14:26:55.504Z,83.01
2019-05-25T14:27:55.444Z,82.92
2019-05-25T14:29:48.212Z,83.97
2019-05-25T14:30:48.149Z,83.40
2019-05-25T14:32:40.960Z,83.97
2019-05-25T14:33:40.882Z,83.59
2019-05-25T14:35:33.667Z,83.69
2019-05-25T14:36:33.591Z,83.11
2019-05-25T14:38:26.445Z,81.76
2019-05-25T14:39:26.302Z,83.49
2019-05-25T14:41:19.114Z,83.20
2019-05-25T14:42:19.059Z,83.01
2019-05-25T14:44:11.826Z,83.49
2019-05-25T14:45:11.749Z,82.53
2019-05-25T14:47:04.562Z,83.30
2019-05-25T14:48:04.471Z,82.92
2019-05-25T14:49:57.242Z,82.05
2019-05-25T14:50:57.180Z,81.96
2019-05-25T14:52:49.973Z,82.92
2019-05-25T14:53:49.905Z,82.05
2019-05-25T14:55:42.732Z,81.76
2019-05-25T14:56:42.656Z,83.30
2019-05-25T14:58:35.474Z,81.76
2019-05-25T14:59:35.413Z,81.96
2019-05-25T15:01:28.259Z,82.20
2019-05-25T15:02:28.098Z,82.20
2019-05-25T15:04:20.889Z,82.87
2019-05-25T15:05:20.823Z,83.54
2019-05-25T15:07:13.672Z,83.03
2019-05-25T15:08:13.590Z,83.51
2019-05-25T15:10:06.383Z,83.74
2019-05-25T15:11:06.265Z,83.93
2019-05-25T15:12:59.087Z,82.97
2019-05-25T15:13:59.013Z,83.36
2019-05-25T15:15:51.823Z,83.64
2019-05-25T15:16:51.777Z,83.54
2019-05-25T15:18:44.584Z,83.64
2019-05-25T15:19:44.525Z,83.64
2019-05-25T15:21:37.449Z,84.70
2019-05-25T15:22:37.216Z,84.70
2019-05-25T15:24:30.125Z,85.28
2019-05-25T15:25:29.939Z,86.62
2019-05-25T15:27:22.774Z,85.75
2019-05-25T15:28:22.676Z,85.13
2019-05-25T15:30:15.466Z,84.89
2019-05-25T15:31:15.420Z,83.93
2019-05-25T15:33:08.191Z,85.51
2019-05-25T15:34:08.109Z,84.94
2019-05-25T15:36:00.913Z,85.41
2019-05-25T15:37:00.850Z,86.28
2019-05-25T15:38:53.685Z,84.36
2019-05-25T15:39:53.594Z,87.01
2019-05-25T15:41:46.388Z,87.72
2019-05-25T15:42:46.270Z,86.66
2019-05-25T15:44:39.099Z,85.94
2019-05-25T15:45:39.020Z,85.27
2019-05-25T15:47:31.866Z,85.41
2019-05-25T15:48:31.742Z,86.09
2019-05-25T15:50:24.542Z,86.62
2019-05-25T15:51:24.504Z,87.39
2019-05-25T15:53:17.253Z,86.14
2019-05-25T15:54:17.172Z,87.01
2019-05-25T15:56:09.957Z,86.14
2019-05-25T15:57:09.917Z,87.39
2019-05-25T15:59:02.751Z,84.70
2019-05-25T16:00:02.679Z,83.36
2019-05-25T16:01:55.468Z,87.49
2019-05-25T16:02:55.391Z,85.28
2019-05-25T16:04:48.226Z,84.22
2019-05-25T16:05:48.164Z,87.10
2019-05-25T16:07:40.970Z,86.58
2019-05-25T16:08:40.947Z,87.73
2019-05-25T16:10:33.688Z,89.26
2019-05-25T16:11:33.690Z,87.54
2019-05-25T16:13:26.424Z,86.10
2019-05-25T16:14:26.354Z,88.59
2019-05-25T16:16:19.121Z,86.96
2019-05-25T16:17:19.050Z,86.77
2019-05-25T16:19:11.846Z,87.59
2019-05-25T16:20:11.771Z,88.45
2019-05-25T16:22:04.634Z,88.45
2019-05-25T16:23:04.562Z,86.82
2019-05-25T16:24:57.337Z,88.74
2019-05-25T16:25:57.267Z,88.35
2019-05-25T16:27:50.087Z,89.22
2019-05-25T16:28:49.975Z,89.32
2019-05-25T16:30:42.822Z,89.46
2019-05-25T16:31:42.701Z,89.36
2019-05-25T16:33:35.497Z,87.59
2019-05-25T16:34:35.429Z,85.77
2019-05-25T16:36:28.223Z,86.58
2019-05-25T16:37:28.246Z,85.10
2019-05-25T16:39:20.964Z,86.44
2019-05-25T16:40:20.915Z,86.34
2019-05-25T16:42:13.708Z,84.42
2019-05-25T16:43:13.635Z,86.15
2019-05-25T16:45:06.425Z,86.54
2019-05-25T16:46:06.346Z,86.92
2019-05-25T16:47:59.166Z,88.07
2019-05-25T16:48:59.072Z,87.40
2019-05-25T16:50:51.870Z,88.07
2019-05-25T16:51:51.820Z,87.01
2019-05-25T16:53:44.603Z,88.07
2019-05-25T16:54:44.528Z,85.96
2019-05-25T16:56:37.319Z,85.28
2019-05-25T16:57:37.297Z,85.96
2019-05-25T16:59:30.114Z,86.05
2019-05-25T17:00:30.025Z,87.11
2019-05-25T17:02:22.789Z,86.54
2019-05-25T17:03:28.068Z,87.11
2019-05-25T17:05:15.491Z,86.92
2019-05-25T17:06:15.419Z,85.48
2019-05-25T17:08:08.228Z,87.11
2019-05-25T17:09:08.163Z,86.82
2019-05-25T17:11:00.917Z,86.25
2019-05-25T17:12:00.938Z,86.82
2019-05-25T17:13:53.646Z,85.86
2019-05-25T17:14:53.649Z,85.86
2019-05-25T17:16:46.357Z,87.40
2019-05-25T17:17:46.290Z,86.92
2019-05-25T17:19:39.142Z,86.40
2019-05-25T17:20:39.034Z,85.92
2019-05-25T17:22:31.784Z,84.86
2019-05-25T17:23:31.722Z,84.58
2019-05-25T17:25:24.523Z,86.78
2019-05-25T17:26:24.455Z,86.78
2019-05-25T17:28:17.224Z,86.58
2019-05-25T17:29:17.133Z,87.07
2019-05-25T17:31:09.918Z,84.86
2019-05-25T17:32:09.938Z,85.53
2019-05-25T17:34:02.673Z,85.63
2019-05-25T17:35:02.570Z,86.49
2019-05-25T17:36:55.436Z,87.45
2019-05-25T17:37:55.298Z,87.93
2019-05-25T17:39:48.071Z,87.26
2019-05-25T17:40:48.026Z,88.51
2019-05-25T17:42:40.771Z,86.68
2019-05-25T17:43:40.701Z,87.84
2019-05-25T17:45:33.542Z,87.41
2019-05-25T17:46:33.416Z,86.93
2019-05-25T17:48:26.225Z,86.83
2019-05-25T17:49:26.125Z,86.45
2019-05-25T17:51:18.926Z,86.45
2019-05-25T17:52:22.605Z,86.54
2019-05-25T17:54:11.713Z,86.25
2019-05-25T17:55:11.602Z,87.45
2019-05-25T17:57:04.396Z,85.49
2019-05-25T17:58:04.335Z,86.64
2019-05-25T17:59:59.475Z,86.58
2019-05-25T18:00:57.056Z,86.58
2019-05-25T18:02:49.875Z,85.72
2019-05-25T18:04:05.584Z,83.48
2019-05-25T18:05:42.641Z,84.05
2019-05-25T18:06:42.548Z,84.25
2019-05-25T18:08:35.356Z,85.49
2019-05-25T18:09:35.281Z,85.97
2019-05-25T18:11:28.070Z,87.21
2019-05-25T18:12:28.044Z,86.45
2019-05-25T18:14:20.794Z,86.45
2019-05-25T18:15:20.715Z,87.41
2019-05-25T18:17:13.518Z,87.50
2019-05-25T18:18:13.474Z,87.60
2019-05-25T18:20:06.234Z,87.41
2019-05-25T18:21:06.161Z,86.74
2019-05-25T18:22:58.933Z,86.35
2019-05-25T18:23:58.860Z,87.31
2019-05-25T18:25:51.716Z,86.98
2019-05-25T18:26:51.583Z,86.98
2019-05-25T18:28:44.381Z,87.94
2019-05-25T18:29:44.352Z,87.08
2019-05-25T18:31:37.089Z,87.37
2019-05-25T18:32:37.020Z,88.32